Time;durP1;ratioP1;P1;durP2;ratioP2;P2;SDS_P1;SDS_P2;PMS_P1;PMS_P2;Temp;Humidity;BMP_temperature;BMP_pressure;BME280_temperature;BME280_humidity;BME280_pressure;Samples;Min_cycle;Max_cycle;Signal;HPM_P1;HPM_P2
2021/01/22 00:00:47;;;;;;;2.50;1.23;;;;;;;;;;5093603;28;20406;-91
2021/01/22 00:03:13;;;;;;;1.20;1.10;;;;;;;;;;5099689;28;20183;-90
2021/01/22 00:05:39;;;;;;;1.52;1.42;;;;;;;;;;5096405;28;20197;-85
2021/01/22 00:08:05;;;;;;;1.50;1.33;;;;;;;;;;5087774;28;20255;-86
2021/01/22 00:10:31;;;;;;;5.13;1.65;;;;;;;;;;5094381;28;20439;-86
2021/01/22 00:12:57;;;;;;;1.37;1.00;;;;;;;;;;5095978;28;20301;-84
2021/01/22 00:15:23;;;;;;;1.45;1.25;;;;;;;;;;5099424;28;20446;-93
2021/01/22 00:17:49;;;;;;;1.98;1.35;;;;;;;;;;5104145;28;20485;-83
2021/01/22 00:20:15;;;;;;;1.95;1.77;;;;;;;;;;5096993;28;20187;-86
2021/01/22 00:22:41;;;;;;;2.38;1.50;;;;;;;;;;5103152;28;20183;-84
2021/01/22 00:25:08;;;;;;;1.55;1.38;;;;;;;;;;5092653;28;20176;-82
2021/01/22 00:27:34;;;;;;;1.60;1.30;;;;;;;;;;5102467;28;20502;-84
2021/01/22 00:30:00;;;;;;;1.80;1.20;;;;;;;;;;5097396;28;20225;-85
2021/01/22 00:32:26;;;;;;;1.30;1.20;;;;;;;;;;5104013;28;20299;-87
2021/01/22 00:34:52;;;;;;;1.63;1.53;;;;;;;;;;5096627;28;20198;-88
2021/01/22 00:37:18;;;;;;;0.90;0.90;;;;;;;;;;5102386;28;20416;-85
2021/01/22 00:39:44;;;;;;;1.27;1.17;;;;;;;;;;5091118;28;20435;-83
2021/01/22 00:42:10;;;;;;;1.17;1.00;;;;;;;;;;5092899;28;20176;-83
2021/01/22 00:44:36;;;;;;;2.65;1.42;;;;;;;;;;5101266;28;20191;-84
2021/01/22 00:47:02;;;;;;;1.40;1.30;;;;;;;;;;5099035;28;20187;-85
2021/01/22 00:49:28;;;;;;;1.17;1.08;;;;;;;;;;5094091;28;20195;-83
2021/01/22 00:51:54;;;;;;;1.17;0.95;;;;;;;;;;5091993;28;20252;-87
2021/01/22 00:54:20;;;;;;;1.40;1.20;;;;;;;;;;5098257;28;20226;-83
2021/01/22 00:56:46;;;;;;;1.00;0.90;;;;;;;;;;5094306;28;21055;-83
2021/01/22 00:59:12;;;;;;;1.90;1.40;;;;;;;;;;5104837;28;20233;-82
2021/01/22 01:01:38;;;;;;;1.20;1.10;;;;;;;;;;5094045;28;20187;-83
2021/01/22 01:04:04;;;;;;;1.13;1.03;;;;;;;;;;5089116;28;20452;-83
2021/01/22 01:06:30;;;;;;;1.88;1.20;;;;;;;;;;5092778;28;20600;-83
2021/01/22 01:08:56;;;;;;;1.10;1.00;;;;;;;;;;5095390;28;20829;-83
2021/01/22 01:11:22;;;;;;;1.50;1.10;;;;;;;;;;5104448;28;20537;-83
2021/01/22 01:13:48;;;;;;;1.00;0.90;;;;;;;;;;5102662;28;20211;-83
2021/01/22 01:16:14;;;;;;;1.30;1.20;;;;;;;;;;5089932;28;20659;-83
2021/01/22 01:18:40;;;;;;;1.57;1.20;;;;;;;;;;5090504;28;20246;-83
2021/01/22 01:21:06;;;;;;;0.97;0.90;;;;;;;;;;5098323;28;20596;-82
2021/01/22 01:23:32;;;;;;;1.40;1.30;;;;;;;;;;5105921;28;20433;-83
2021/01/22 01:25:58;;;;;;;1.20;1.00;;;;;;;;;;5091372;28;20214;-82
2021/01/22 01:28:24;;;;;;;1.15;1.05;;;;;;;;;;5091681;28;20192;-83
2021/01/22 01:30:50;;;;;;;1.93;1.37;;;;;;;;;;5098473;28;20185;-82
2021/01/22 01:33:16;;;;;;;1.70;1.30;;;;;;;;;;5095667;28;20454;-82
2021/01/22 01:35:41;;;;;;;3.13;1.40;;;;;;;;;;5103990;28;20190;-82
2021/01/22 01:38:07;;;;;;;1.70;1.10;;;;;;;;;;5108942;28;20441;-82
2021/01/22 01:40:33;;;;;;;1.48;1.10;;;;;;;;;;5107737;28;20434;-82
2021/01/22 01:42:59;;;;;;;1.42;1.02;;;;;;;;;;5095417;28;20538;-82
2021/01/22 01:45:25;;;;;;;3.20;1.30;;;;;;;;;;5101001;28;20187;-82
2021/01/22 01:47:51;;;;;;;1.98;1.10;;;;;;;;;;5101205;28;20433;-82
2021/01/22 01:50:18;;;;;;;6.13;1.42;;;;;;;;;;5107013;28;20647;-82
2021/01/22 01:52:44;;;;;;;2.15;1.40;;;;;;;;;;5099201;28;20227;-83
2021/01/22 01:55:10;;;;;;;1.58;1.42;;;;;;;;;;5092045;28;20188;-83
2021/01/22 01:57:36;;;;;;;1.30;0.90;;;;;;;;;;5088547;28;20313;-83
2021/01/22 02:00:04;;;;;;;2.55;1.40;;;;;;;;;;5095281;28;20172;-83
2021/01/22 02:02:30;;;;;;;3.28;1.10;;;;;;;;;;5089134;28;20207;-83
2021/01/22 02:04:57;;;;;;;1.50;1.00;;;;;;;;;;5099728;28;20188;-83
2021/01/22 02:07:23;;;;;;;2.17;1.10;;;;;;;;;;5098076;28;20191;-83
2021/01/22 02:09:50;;;;;;;1.00;0.90;;;;;;;;;;5093849;28;20176;-83
2021/01/22 02:12:16;;;;;;;1.10;0.90;;;;;;;;;;5101760;28;20183;-84
2021/01/22 02:14:43;;;;;;;0.88;0.88;;;;;;;;;;5095539;28;20573;-83
2021/01/22 02:17:09;;;;;;;0.90;0.90;;;;;;;;;;5101453;28;20189;-83
2021/01/22 02:19:54;;;;;;;1.75;0.90;;;;;;;;;;5106404;28;20196;-83
2021/01/22 02:22:21;;;;;;;1.10;0.80;;;;;;;;;;5087996;28;20197;-83
2021/01/22 02:24:47;;;;;;;5.47;0.98;;;;;;;;;;5099272;28;20184;-83
2021/01/22 02:27:15;;;;;;;2.58;0.90;;;;;;;;;;5108732;28;20175;-83
2021/01/22 02:29:42;;;;;;;0.80;0.80;;;;;;;;;;5106471;28;20251;-83
2021/01/22 02:32:08;;;;;;;1.40;0.90;;;;;;;;;;5106269;28;20223;-82
2021/01/22 02:34:37;;;;;;;1.02;0.80;;;;;;;;;;5104645;28;20211;-83
2021/01/22 02:37:04;;;;;;;0.90;0.65;;;;;;;;;;5099689;28;20172;-82
2021/01/22 02:39:32;;;;;;;0.88;0.82;;;;;;;;;;5100201;28;20628;-83
2021/01/22 02:41:59;;;;;;;1.17;1.00;;;;;;;;;;5101598;28;20184;-82
2021/01/22 02:44:25;;;;;;;0.90;0.90;;;;;;;;;;5096263;28;20180;-82
2021/01/22 02:46:51;;;;;;;2.17;1.00;;;;;;;;;;5102438;28;20184;-82
2021/01/22 02:49:17;;;;;;;3.38;0.90;;;;;;;;;;5101626;28;20330;-82
2021/01/22 02:51:45;;;;;;;0.80;0.80;;;;;;;;;;5098781;28;20644;-82
2021/01/22 02:54:11;;;;;;;0.75;0.60;;;;;;;;;;5100497;28;20688;-82
2021/01/22 02:56:39;;;;;;;0.60;0.60;;;;;;;;;;5101812;28;20183;-82
2021/01/22 02:59:11;;;;;;;1.20;0.90;;;;;;;;;;5099890;28;20698;-83
2021/01/22 03:01:45;;;;;;;0.80;0.68;;;;;;;;;;5095437;28;20175;-82
2021/01/22 03:04:13;;;;;;;0.70;0.70;;;;;;;;;;5102247;28;20183;-82
2021/01/22 03:06:41;;;;;;;1.73;0.85;;;;;;;;;;5087306;28;20275;-82
2021/01/22 03:09:09;;;;;;;1.08;0.90;;;;;;;;;;5099390;28;20169;-82
2021/01/22 03:11:35;;;;;;;2.47;0.80;;;;;;;;;;5095877;28;20195;-82
2021/01/22 03:14:04;;;;;;;1.50;0.63;;;;;;;;;;5104035;28;20208;-82
2021/01/22 03:16:33;;;;;;;1.88;0.70;;;;;;;;;;5107676;28;20191;-82
2021/01/22 03:18:59;;;;;;;2.08;0.80;;;;;;;;;;5093580;28;20186;-82
2021/01/22 03:21:25;;;;;;;2.25;1.02;;;;;;;;;;5106449;28;20218;-82
2021/01/22 03:23:51;;;;;;;0.70;0.70;;;;;;;;;;5104326;28;20262;-82
2021/01/22 03:26:17;;;;;;;4.38;1.10;;;;;;;;;;5104392;28;20188;-82
2021/01/22 03:28:43;;;;;;;0.82;0.80;;;;;;;;;;5104882;28;20188;-82
2021/01/22 03:31:09;;;;;;;0.68;0.50;;;;;;;;;;5093335;28;20226;-83
2021/01/22 03:33:36;;;;;;;0.70;0.60;;;;;;;;;;5088396;28;20219;-81
2021/01/22 03:36:02;;;;;;;1.23;0.70;;;;;;;;;;5094617;28;20164;-82
2021/01/22 03:38:28;;;;;;;2.65;0.70;;;;;;;;;;5099158;28;20630;-82
2021/01/22 03:40:54;;;;;;;1.27;0.73;;;;;;;;;;5102465;28;20755;-82
2021/01/22 03:43:21;;;;;;;1.50;0.70;;;;;;;;;;5090915;28;20640;-83
2021/01/22 03:45:46;;;;;;;2.90;1.27;;;;;;;;;;5104893;28;20183;-83
2021/01/22 03:48:12;;;;;;;1.77;0.60;;;;;;;;;;5089111;28;20588;-82
2021/01/22 03:50:38;;;;;;;1.77;0.88;;;;;;;;;;5097110;28;20460;-82
2021/01/22 03:53:04;;;;;;;0.88;0.88;;;;;;;;;;5103877;28;20199;-82
2021/01/22 03:55:30;;;;;;;1.95;0.70;;;;;;;;;;5092682;28;20228;-82
2021/01/22 03:57:56;;;;;;;1.77;0.70;;;;;;;;;;5102143;28;20184;-82
2021/01/22 04:00:22;;;;;;;0.80;0.60;;;;;;;;;;5097750;28;20421;-82
2021/01/22 04:02:48;;;;;;;0.65;0.65;;;;;;;;;;5096649;28;20613;-82
2021/01/22 04:05:14;;;;;;;2.80;0.70;;;;;;;;;;5093854;28;20180;-82
2021/01/22 04:07:40;;;;;;;1.60;0.70;;;;;;;;;;5098443;28;20440;-82
2021/01/22 04:10:07;;;;;;;1.73;0.75;;;;;;;;;;5098365;28;20528;-82
2021/01/22 04:12:35;;;;;;;0.70;0.60;;;;;;;;;;5085957;28;20569;-82
2021/01/22 04:15:01;;;;;;;3.20;1.00;;;;;;;;;;5107098;28;20175;-82
2021/01/22 04:17:27;;;;;;;3.42;0.82;;;;;;;;;;5097104;28;20168;-82
2021/01/22 04:19:53;;;;;;;1.67;0.80;;;;;;;;;;5095012;28;20587;-82
2021/01/22 04:22:19;;;;;;;2.20;1.00;;;;;;;;;;5106592;28;20501;-82
2021/01/22 04:24:45;;;;;;;1.70;0.80;;;;;;;;;;5093065;28;20176;-83
2021/01/22 04:27:11;;;;;;;2.97;1.05;;;;;;;;;;5098094;28;20437;-83
2021/01/22 04:29:37;;;;;;;0.73;0.70;;;;;;;;;;5097122;28;20366;-82
2021/01/22 04:32:03;;;;;;;1.27;0.90;;;;;;;;;;5102456;28;20469;-82
2021/01/22 04:34:30;;;;;;;1.88;0.90;;;;;;;;;;5106112;28;20203;-82
2021/01/22 04:36:56;;;;;;;2.22;1.00;;;;;;;;;;5103096;28;20187;-83
2021/01/22 04:39:22;;;;;;;1.35;1.00;;;;;;;;;;5105132;28;20206;-82
2021/01/22 04:41:48;;;;;;;2.28;0.90;;;;;;;;;;5097632;28;20172;-82
2021/01/22 04:44:14;;;;;;;1.35;1.20;;;;;;;;;;5098592;28;20184;-82
2021/01/22 04:46:41;;;;;;;0.88;0.70;;;;;;;;;;5104723;28;20199;-81
2021/01/22 04:49:07;;;;;;;1.35;0.73;;;;;;;;;;5102490;28;20677;-82
2021/01/22 04:51:34;;;;;;;3.75;0.88;;;;;;;;;;5097315;28;20271;-82
2021/01/22 04:54:10;;;;;;;1.13;1.00;;;;;;;;;;5098600;28;20195;-82
2021/01/22 04:56:38;;;;;;;2.80;0.70;;;;;;;;;;5104465;28;20179;-82
2021/01/22 04:59:07;;;;;;;2.10;0.90;;;;;;;;;;5102796;28;20237;-82
2021/01/22 05:01:33;;;;;;;2.80;0.82;;;;;;;;;;5104146;28;20205;-81
2021/01/22 05:03:59;;;;;;;0.75;0.50;;;;;;;;;;5089770;28;20678;-81
2021/01/22 05:06:25;;;;;;;2.55;0.80;;;;;;;;;;5098213;28;20179;-82
2021/01/22 05:08:53;;;;;;;2.25;0.70;;;;;;;;;;5103976;28;20274;-81
2021/01/22 05:11:20;;;;;;;0.73;0.70;;;;;;;;;;5091258;28;20189;-82
2021/01/22 05:13:46;;;;;;;4.90;0.85;;;;;;;;;;5095161;28;20204;-82
2021/01/22 05:16:13;;;;;;;2.45;0.80;;;;;;;;;;5093816;28;20198;-82
2021/01/22 05:18:39;;;;;;;0.90;0.73;;;;;;;;;;5094853;28;20185;-81
2021/01/22 05:21:12;;;;;;;2.90;0.80;;;;;;;;;;5083659;28;20176;-81
2021/01/22 05:23:39;;;;;;;1.65;0.90;;;;;;;;;;5098903;28;20195;-82
2021/01/22 05:26:10;;;;;;;0.70;0.70;;;;;;;;;;5099251;28;20198;-81
2021/01/22 05:28:40;;;;;;;1.40;0.73;;;;;;;;;;5092972;28;20183;-82
2021/01/22 05:31:07;;;;;;;1.20;0.60;;;;;;;;;;5086207;28;20220;-82
2021/01/22 05:33:33;;;;;;;0.60;0.60;;;;;;;;;;5091280;28;20294;-82
2021/01/22 05:36:19;;;;;;;3.33;0.60;;;;;;;;;;5098179;28;20180;-82
2021/01/22 05:38:45;;;;;;;0.95;0.70;;;;;;;;;;5102780;28;20211;-82
2021/01/22 05:41:11;;;;;;;1.17;0.60;;;;;;;;;;5102695;28;20198;-81
2021/01/22 05:43:38;;;;;;;1.13;0.70;;;;;;;;;;5098656;28;20584;-81
2021/01/22 05:46:11;;;;;;;2.47;0.70;;;;;;;;;;5092573;28;20188;-82
2021/01/22 05:48:37;;;;;;;1.80;0.90;;;;;;;;;;5094703;28;20192;-82
2021/01/22 05:51:03;;;;;;;2.35;0.80;;;;;;;;;;5086848;28;20184;-82
2021/01/22 05:53:29;;;;;;;0.90;0.90;;;;;;;;;;5100294;28;20207;-82
2021/01/22 05:56:08;;;;;;;1.77;0.90;;;;;;;;;;5101147;28;20230;-82
2021/01/22 05:58:36;;;;;;;1.10;0.70;;;;;;;;;;5099082;28;20195;-81
2021/01/22 06:01:06;;;;;;;1.73;0.93;;;;;;;;;;5094909;28;20184;-81
2021/01/22 06:03:32;;;;;;;0.93;0.85;;;;;;;;;;5089561;28;20422;-82
2021/01/22 06:05:58;;;;;;;2.28;1.40;;;;;;;;;;5101931;28;20190;-82
2021/01/22 06:08:25;;;;;;;1.63;1.10;;;;;;;;;;5102768;28;20601;-82
2021/01/22 06:10:52;;;;;;;3.63;1.00;;;;;;;;;;5096466;28;20187;-81
2021/01/22 06:13:22;;;;;;;2.58;1.10;;;;;;;;;;5105987;28;20206;-82
2021/01/22 06:15:48;;;;;;;2.92;1.60;;;;;;;;;;5094374;28;20173;-81
2021/01/22 06:18:16;;;;;;;1.60;1.50;;;;;;;;;;5108664;28;20255;-82
2021/01/22 06:20:45;;;;;;;4.95;1.10;;;;;;;;;;5107536;28;20483;-82
2021/01/22 06:23:12;;;;;;;4.22;0.88;;;;;;;;;;5100945;28;20266;-82
2021/01/22 06:25:38;;;;;;;1.02;0.90;;;;;;;;;;5097016;28;20347;-82
2021/01/22 06:28:05;;;;;;;4.00;0.95;;;;;;;;;;5096697;28;20188;-82
2021/01/22 06:30:35;;;;;;;3.60;0.90;;;;;;;;;;5100672;28;20164;-82
2021/01/22 06:33:02;;;;;;;2.92;1.20;;;;;;;;;;5106227;28;20456;-82
2021/01/22 06:35:29;;;;;;;1.15;0.95;;;;;;;;;;5105130;28;20287;-82
2021/01/22 06:37:56;;;;;;;2.10;1.05;;;;;;;;;;5095793;28;20180;-82
2021/01/22 06:40:22;;;;;;;1.80;0.95;;;;;;;;;;5096428;28;20179;-82
2021/01/22 06:42:48;;;;;;;2.20;0.95;;;;;;;;;;5100483;28;20191;-82
2021/01/22 06:45:15;;;;;;;2.22;0.82;;;;;;;;;;5102616;28;20159;-82
2021/01/22 06:47:41;;;;;;;1.70;0.93;;;;;;;;;;5103417;28;20211;-82
2021/01/22 06:50:27;;;;;;;3.15;1.40;;;;;;;;;;5094202;28;20190;-82
2021/01/22 06:53:03;;;;;;;1.27;1.15;;;;;;;;;;5093849;28;20203;-81
2021/01/22 06:55:29;;;;;;;2.47;1.10;;;;;;;;;;5098604;28;20187;-82
2021/01/22 06:58:14;;;;;;;7.03;1.30;;;;;;;;;;5099856;28;20222;-82
2021/01/22 07:00:40;;;;;;;4.38;1.25;;;;;;;;;;5099307;28;20176;-81
2021/01/22 07:03:06;;;;;;;1.67;1.40;;;;;;;;;;5107409;28;20175;-82
2021/01/22 07:05:32;;;;;;;2.25;1.20;;;;;;;;;;5101515;28;20649;-82
2021/01/22 07:07:58;;;;;;;2.10;1.30;;;;;;;;;;5098538;28;20206;-82
2021/01/22 07:10:43;;;;;;;3.90;1.10;;;;;;;;;;5096976;28;20520;-82
2021/01/22 07:13:29;;;;;;;2.72;1.00;;;;;;;;;;5091309;28;20457;-82
2021/01/22 07:16:01;;;;;;;3.08;1.30;;;;;;;;;;5104305;28;20297;-82
2021/01/22 07:18:27;;;;;;;4.38;1.33;;;;;;;;;;5099478;28;20198;-82
2021/01/22 07:21:13;;;;;;;1.85;1.20;;;;;;;;;;5106628;28;20203;-82
2021/01/22 07:23:42;;;;;;;4.22;1.23;;;;;;;;;;5107438;28;20183;-82
2021/01/22 07:26:09;;;;;;;1.60;1.30;;;;;;;;;;5104393;28;20216;-82
2021/01/22 07:28:48;;;;;;;3.80;1.40;;;;;;;;;;5102401;28;20194;-82
2021/01/22 07:31:34;;;;;;;2.67;1.80;;;;;;;;;;5102372;28;20215;-82
2021/01/22 07:34:01;;;;;;;6.18;1.88;;;;;;;;;;5083202;28;20275;-82
2021/01/22 07:36:27;;;;;;;2.45;1.83;;;;;;;;;;5098263;28;20199;-82
2021/01/22 07:38:53;;;;;;;4.45;1.70;;;;;;;;;;5099544;28;20207;-82
2021/01/22 07:41:22;;;;;;;4.15;1.75;;;;;;;;;;5106879;28;20206;-83
2021/01/22 07:44:01;;;;;;;6.10;1.75;;;;;;;;;;5087917;28;20282;-82
2021/01/22 07:46:28;;;;;;;7.07;2.42;;;;;;;;;;5090764;28;20182;-82
2021/01/22 07:49:07;;;;;;;3.97;1.90;;;;;;;;;;5092767;28;20184;-82
2021/01/22 07:51:36;;;;;;;4.70;1.70;;;;;;;;;;5096660;28;20584;-82
2021/01/22 07:54:03;;;;;;;2.08;1.65;;;;;;;;;;5098762;28;20207;-82
2021/01/22 07:56:33;;;;;;;2.65;1.77;;;;;;;;;;5094341;28;20192;-82
2021/01/22 07:58:59;;;;;;;4.63;1.70;;;;;;;;;;5098467;28;20188;-82
2021/01/22 08:01:25;;;;;;;2.75;1.60;;;;;;;;;;5094697;28;20259;-82
2021/01/22 08:03:51;;;;;;;2.85;1.75;;;;;;;;;;5092938;28;20176;-81
2021/01/22 08:06:17;;;;;;;2.13;1.90;;;;;;;;;;5097933;28;20185;-82
2021/01/22 08:08:43;;;;;;;3.50;2.40;;;;;;;;;;5100184;28;20190;-81
2021/01/22 08:11:22;;;;;;;3.65;2.55;;;;;;;;;;5089118;28;20270;-81
2021/01/22 08:13:49;;;;;;;4.38;3.60;;;;;;;;;;5098271;28;20211;-81
2021/01/22 08:16:22;;;;;;;5.25;3.60;;;;;;;;;;5089387;28;20176;-82
2021/01/22 08:18:51;;;;;;;4.40;2.58;;;;;;;;;;5097080;28;20203;-82
2021/01/22 08:21:18;;;;;;;5.30;2.55;;;;;;;;;;5094924;28;20168;-82
2021/01/22 08:23:44;;;;;;;4.13;2.95;;;;;;;;;;5096625;28;20707;-82
2021/01/22 08:26:13;;;;;;;3.90;2.83;;;;;;;;;;5096663;28;20199;-81
2021/01/22 08:28:40;;;;;;;3.35;2.80;;;;;;;;;;5098378;28;20195;-82
2021/01/22 08:31:09;;;;;;;4.15;2.72;;;;;;;;;;5096791;28;20279;-81
2021/01/22 08:33:36;;;;;;;7.43;2.60;;;;;;;;;;5099908;28;20199;-81
2021/01/22 08:36:02;;;;;;;7.78;3.30;;;;;;;;;;5101215;28;20175;-81
2021/01/22 08:38:28;;;;;;;3.50;2.75;;;;;;;;;;5100718;28;20184;-80
2021/01/22 08:40:54;;;;;;;5.95;3.15;;;;;;;;;;5103058;28;20275;-82
2021/01/22 08:43:20;;;;;;;5.93;2.95;;;;;;;;;;5103498;28;20190;-81
2021/01/22 08:46:11;;;;;;;2.58;2.30;;;;;;;;;;5091874;28;20184;-81
2021/01/22 08:48:37;;;;;;;5.85;2.17;;;;;;;;;;5091892;28;20262;-81
2021/01/22 08:51:04;;;;;;;2.38;2.17;;;;;;;;;;5088008;28;20187;-81
2021/01/22 08:53:30;;;;;;;5.15;2.38;;;;;;;;;;5097263;28;20211;-81
2021/01/22 08:56:11;;;;;;;4.40;2.20;;;;;;;;;;5105583;28;20180;-81
2021/01/22 08:58:56;;;;;;;3.83;2.65;;;;;;;;;;5097987;28;20183;-81
2021/01/22 09:01:22;;;;;;;5.32;2.90;;;;;;;;;;5085026;28;20176;-81
2021/01/22 09:03:48;;;;;;;3.47;1.95;;;;;;;;;;5085058;28;20592;-81
2021/01/22 09:06:14;;;;;;;4.20;2.28;;;;;;;;;;5091973;28;20208;-83
2021/01/22 09:08:54;;;;;;;2.20;1.80;;;;;;;;;;5096396;28;20195;-82
2021/01/22 09:11:36;;;;;;;5.05;2.63;;;;;;;;;;5086363;28;20442;-81
2021/01/22 09:14:02;;;;;;;3.28;2.20;;;;;;;;;;5094545;28;20204;-81
2021/01/22 09:16:28;;;;;;;3.90;2.05;;;;;;;;;;5090542;28;20183;-81
2021/01/22 09:19:00;;;;;;;4.57;1.92;;;;;;;;;;5085278;28;20723;-82
2021/01/22 09:21:27;;;;;;;11.90;2.72;;;;;;;;;;5098077;28;20187;-81
2021/01/22 09:23:53;;;;;;;4.88;2.30;;;;;;;;;;5093719;28;20600;-81
2021/01/22 09:26:19;;;;;;;3.55;2.30;;;;;;;;;;5098528;28;20195;-82
2021/01/22 09:28:46;;;;;;;5.55;2.22;;;;;;;;;;5099517;28;20198;-82
2021/01/22 09:31:12;;;;;;;5.68;2.00;;;;;;;;;;5092137;28;20649;-82
2021/01/22 09:33:38;;;;;;;2.05;1.50;;;;;;;;;;5101423;28;20208;-85
2021/01/22 09:36:04;;;;;;;2.50;1.60;;;;;;;;;;5098799;28;20175;-83
2021/01/22 09:38:30;;;;;;;1.67;1.58;;;;;;;;;;5104350;28;20451;-82
2021/01/22 09:40:56;;;;;;;2.55;1.95;;;;;;;;;;5105738;28;20179;-83
2021/01/22 09:43:22;;;;;;;5.57;2.47;;;;;;;;;;5102642;28;20219;-84
2021/01/22 09:45:48;;;;;;;2.95;1.42;;;;;;;;;;5105212;28;20521;-86
2021/01/22 09:48:18;;;;;;;3.00;2.40;;;;;;;;;;5092723;28;20180;-82
2021/01/22 09:50:44;;;;;;;3.28;2.00;;;;;;;;;;5105485;28;20190;-82
2021/01/22 09:53:10;;;;;;;6.22;1.98;;;;;;;;;;5100894;28;20196;-82
2021/01/22 09:55:36;;;;;;;1.83;1.60;;;;;;;;;;5108457;28;20190;-82
2021/01/22 09:58:02;;;;;;;3.08;1.88;;;;;;;;;;5106400;28;20187;-82
2021/01/22 10:00:28;;;;;;;3.75;1.92;;;;;;;;;;5098709;28;20649;-83
2021/01/22 10:02:54;;;;;;;7.53;2.35;;;;;;;;;;5097570;28;20234;-82
2021/01/22 10:05:20;;;;;;;2.80;2.07;;;;;;;;;;5099980;28;20184;-82
2021/01/22 10:07:46;;;;;;;5.47;2.10;;;;;;;;;;5100566;28;20429;-81
2021/01/22 10:10:12;;;;;;;3.33;2.33;;;;;;;;;;5108910;28;20666;-82
2021/01/22 10:12:38;;;;;;;3.60;2.60;;;;;;;;;;5103278;28;20176;-81
2021/01/22 10:15:05;;;;;;;5.63;2.67;;;;;;;;;;5102056;28;20164;-81
2021/01/22 10:17:31;;;;;;;6.40;3.67;;;;;;;;;;5103583;28;20172;-80
2021/01/22 10:19:57;;;;;;;3.30;2.67;;;;;;;;;;5099449;28;20180;-82
2021/01/22 10:22:23;;;;;;;2.40;2.15;;;;;;;;;;5104588;28;20179;-87
2021/01/22 10:24:49;;;;;;;2.58;2.00;;;;;;;;;;5104877;28;20557;-83
2021/01/22 10:27:15;;;;;;;2.40;2.20;;;;;;;;;;5108691;28;20179;-85
2021/01/22 10:29:41;;;;;;;2.85;2.10;;;;;;;;;;5093913;28;20234;-82
2021/01/22 10:32:07;;;;;;;2.72;2.35;;;;;;;;;;5096827;28;20227;-84
2021/01/22 10:34:33;;;;;;;3.35;1.95;;;;;;;;;;5107006;28;20303;-86
2021/01/22 10:36:59;;;;;;;2.20;1.90;;;;;;;;;;5095367;28;20179;-83
2021/01/22 10:39:25;;;;;;;5.70;2.10;;;;;;;;;;5100256;28;20194;-82
2021/01/22 10:41:51;;;;;;;3.33;2.37;;;;;;;;;;5100861;28;20445;-82
2021/01/22 10:44:17;;;;;;;2.60;2.37;;;;;;;;;;5104866;28;20471;-84
2021/01/22 10:46:44;;;;;;;3.90;3.00;;;;;;;;;;5100842;28;20434;-86
2021/01/22 10:49:10;;;;;;;6.18;2.20;;;;;;;;;;5094692;28;20469;-86
2021/01/22 10:51:36;;;;;;;3.47;2.40;;;;;;;;;;5103938;28;20210;-86
2021/01/22 10:54:03;;;;;;;3.42;2.60;;;;;;;;;;5097260;28;20458;-88
2021/01/22 10:56:29;;;;;;;3.30;2.40;;;;;;;;;;5100630;28;20188;-82
2021/01/22 10:58:55;;;;;;;3.42;2.25;;;;;;;;;;5088359;28;20270;-83
2021/01/22 11:01:21;;;;;;;2.77;2.20;;;;;;;;;;5103048;28;20176;-83
2021/01/22 11:03:47;;;;;;;2.78;2.50;;;;;;;;;;5101963;28;20502;-83
2021/01/22 11:06:13;;;;;;;1.80;1.70;;;;;;;;;;5097607;28;20187;-84
2021/01/22 11:08:39;;;;;;;2.42;2.22;;;;;;;;;;5094346;28;20216;-87
2021/01/22 11:11:05;;;;;;;4.22;2.15;;;;;;;;;;5096695;28;20177;-86
2021/01/22 11:13:30;;;;;;;4.80;2.37;;;;;;;;;;5100179;28;20203;-86
2021/01/22 11:15:56;;;;;;;4.13;2.80;;;;;;;;;;5100502;28;20654;-83
2021/01/22 11:18:22;;;;;;;2.67;2.10;;;;;;;;;;5103979;28;20168;-85
2021/01/22 11:20:49;;;;;;;3.08;2.15;;;;;;;;;;5096417;28;20449;-84
2021/01/22 11:23:15;;;;;;;4.07;2.70;;;;;;;;;;5110428;28;20188;-85
2021/01/22 11:25:41;;;;;;;7.45;2.63;;;;;;;;;;5114615;28;20183;-83
2021/01/22 11:28:07;;;;;;;4.83;2.43;;;;;;;;;;5100852;28;20232;-87
2021/01/22 11:30:33;;;;;;;7.70;2.93;;;;;;;;;;5104048;28;20441;-82
2021/01/22 11:33:00;;;;;;;4.45;2.78;;;;;;;;;;5095004;28;20474;-84
2021/01/22 11:35:26;;;;;;;3.22;2.90;;;;;;;;;;5091500;28;20180;-85
2021/01/22 11:37:52;;;;;;;8.57;3.28;;;;;;;;;;5103865;28;20175;-87
2021/01/22 11:40:18;;;;;;;5.22;2.47;;;;;;;;;;5092390;28;20184;-88
2021/01/22 11:42:44;;;;;;;7.57;3.00;;;;;;;;;;5091234;28;20176;-83
2021/01/22 11:45:10;;;;;;;4.90;2.55;;;;;;;;;;5107767;28;20183;-86
2021/01/22 11:47:38;;;;;;;5.53;2.70;;;;;;;;;;5105488;28;20218;-86
2021/01/22 11:50:04;;;;;;;6.60;3.20;;;;;;;;;;5104305;28;20179;-84
2021/01/22 11:52:30;;;;;;;4.70;2.50;;;;;;;;;;5101679;28;20176;-84
2021/01/22 11:54:56;;;;;;;2.97;2.38;;;;;;;;;;5087200;28;20216;-84
2021/01/22 11:57:22;;;;;;;3.30;2.65;;;;;;;;;;5101682;28;20201;-87
2021/01/22 11:59:49;;;;;;;4.60;2.67;;;;;;;;;;5102399;28;20181;-84
2021/01/22 12:02:15;;;;;;;3.35;2.40;;;;;;;;;;5094059;28;20204;-86
2021/01/22 12:04:41;;;;;;;4.40;2.30;;;;;;;;;;5098911;28;20183;-85
2021/01/22 12:07:07;;;;;;;3.63;2.20;;;;;;;;;;5088223;28;20433;-83
2021/01/22 12:09:33;;;;;;;2.90;2.00;;;;;;;;;;5086349;28;20431;-85
2021/01/22 12:11:59;;;;;;;3.35;2.63;;;;;;;;;;5091331;28;20557;-86
2021/01/22 12:14:27;;;;;;;5.33;2.50;;;;;;;;;;5100388;28;20217;-87
2021/01/22 12:16:53;;;;;;;2.65;2.30;;;;;;;;;;5097460;28;20434;-86
2021/01/22 12:19:20;;;;;;;50.90;29.67;;;;;;;;;;5098226;28;20219;-87
2021/01/22 12:21:46;;;;;;;4.32;2.70;;;;;;;;;;5113237;28;20418;-86
2021/01/22 12:24:12;;;;;;;5.80;2.83;;;;;;;;;;5095969;28;20259;-90
2021/01/22 12:26:38;;;;;;;4.45;2.55;;;;;;;;;;5099480;28;20450;-91
2021/01/22 12:29:04;;;;;;;3.80;2.10;;;;;;;;;;5102320;28;20186;-89
2021/01/22 12:31:30;;;;;;;3.50;2.20;;;;;;;;;;5095602;28;20287;-89
2021/01/22 12:33:56;;;;;;;3.78;2.22;;;;;;;;;;5091459;28;20226;-90
2021/01/22 12:36:23;;;;;;;3.85;1.80;;;;;;;;;;5099487;28;20657;-91
2021/01/22 12:38:49;;;;;;;1.70;1.40;;;;;;;;;;5104829;28;20190;-90
2021/01/22 12:41:15;;;;;;;2.65;2.25;;;;;;;;;;5106408;28;20179;-90
2021/01/22 12:43:41;;;;;;;3.25;2.10;;;;;;;;;;5091895;28;20204;-90
2021/01/22 12:46:09;;;;;;;5.68;2.75;;;;;;;;;;5103457;28;20206;-91
2021/01/22 12:48:35;;;;;;;2.40;2.20;;;;;;;;;;5100689;28;20206;-91
2021/01/22 12:51:01;;;;;;;3.47;2.33;;;;;;;;;;5100066;28;20175;-91
2021/01/22 12:53:28;;;;;;;7.38;2.20;;;;;;;;;;5093878;28;20862;-88
2021/01/22 12:55:54;;;;;;;7.18;2.58;;;;;;;;;;5105980;28;20180;-90
2021/01/22 12:58:20;;;;;;;2.80;2.10;;;;;;;;;;5101069;28;20183;-90
2021/01/22 13:00:46;;;;;;;3.35;3.05;;;;;;;;;;5091597;28;20186;-89
2021/01/22 13:03:12;;;;;;;2.20;1.98;;;;;;;;;;5093457;28;20251;-89
2021/01/22 13:05:38;;;;;;;3.20;2.50;;;;;;;;;;5094641;28;20224;-90
2021/01/22 13:08:04;;;;;;;3.75;2.85;;;;;;;;;;5095609;28;20195;-89
2021/01/22 13:10:30;;;;;;;2.47;2.00;;;;;;;;;;5099144;28;20209;-90
2021/01/22 13:12:56;;;;;;;4.57;2.67;;;;;;;;;;5086710;28;20197;-89
2021/01/22 13:15:22;;;;;;;3.92;1.95;;;;;;;;;;5098516;28;20182;-88
2021/01/22 13:17:48;;;;;;;2.03;1.90;;;;;;;;;;5100900;28;20180;-90
2021/01/22 13:20:14;;;;;;;4.20;2.38;;;;;;;;;;5102442;28;20653;-88
2021/01/22 13:22:40;;;;;;;3.50;1.90;;;;;;;;;;5103640;28;20176;-89
2021/01/22 13:25:07;;;;;;;4.63;1.58;;;;;;;;;;5090382;28;20190;-86
2021/01/22 13:27:33;;;;;;;4.53;2.10;;;;;;;;;;5097792;28;20202;-89
2021/01/22 13:29:59;;;;;;;4.53;2.10;;;;;;;;;;5103170;28;20219;-91
2021/01/22 13:32:26;;;;;;;4.45;2.55;;;;;;;;;;5096656;28;20302;-89
2021/01/22 13:34:51;;;;;;;3.05;1.60;;;;;;;;;;5095598;28;20230;-88
2021/01/22 13:37:18;;;;;;;4.10;1.85;;;;;;;;;;5091116;28;20191;-91
2021/01/22 13:39:44;;;;;;;4.40;1.70;;;;;;;;;;5100271;28;20190;-88
2021/01/22 13:42:10;;;;;;;4.03;1.60;;;;;;;;;;5096594;28;20183;-88
2021/01/22 13:44:36;;;;;;;2.58;1.60;;;;;;;;;;5103221;28;20333;-88
2021/01/22 13:47:03;;;;;;;3.58;1.40;;;;;;;;;;5101824;28;20237;-89
2021/01/22 13:49:28;;;;;;;3.72;1.30;;;;;;;;;;5106008;28;20194;-90
2021/01/22 13:51:54;;;;;;;3.80;1.80;;;;;;;;;;5106301;28;20175;-84
2021/01/22 13:54:20;;;;;;;6.10;2.33;;;;;;;;;;5105192;28;20199;-86
2021/01/22 13:56:46;;;;;;;6.97;1.90;;;;;;;;;;5102735;28;20188;-83
2021/01/22 13:59:13;;;;;;;3.80;1.80;;;;;;;;;;5104232;28;20184;-87
2021/01/22 14:01:39;;;;;;;3.40;1.40;;;;;;;;;;5095695;28;20215;-87
2021/01/22 14:04:05;;;;;;;2.20;1.60;;;;;;;;;;5102456;28;20548;-86
2021/01/22 14:06:31;;;;;;;3.67;1.70;;;;;;;;;;5102697;28;20524;-87
2021/01/22 14:08:57;;;;;;;2.45;1.58;;;;;;;;;;5106330;28;20253;-86
2021/01/22 14:11:23;;;;;;;2.60;1.63;;;;;;;;;;5101343;28;20186;-86
2021/01/22 14:13:49;;;;;;;2.60;1.70;;;;;;;;;;5105994;28;20290;-84
2021/01/22 14:16:15;;;;;;;2.20;0.93;;;;;;;;;;5098591;28;20449;-85
2021/01/22 14:18:41;;;;;;;1.83;1.30;;;;;;;;;;5102344;28;20422;-83
2021/01/22 14:21:07;;;;;;;2.00;0.95;;;;;;;;;;5108162;28;20967;-82
2021/01/22 14:23:33;;;;;;;1.58;1.15;;;;;;;;;;5100489;28;20258;-87
2021/01/22 14:26:01;;;;;;;4.68;1.00;;;;;;;;;;5097220;28;20192;-87
2021/01/22 14:28:27;;;;;;;1.55;1.25;;;;;;;;;;5105020;28;20251;-86
2021/01/22 14:30:53;;;;;;;2.47;1.83;;;;;;;;;;5105350;28;20172;-83
2021/01/22 14:33:19;;;;;;;2.58;1.35;;;;;;;;;;5102070;28;20461;-86
2021/01/22 14:35:45;;;;;;;4.78;1.40;;;;;;;;;;5092938;28;20184;-87
2021/01/22 14:38:11;;;;;;;3.15;1.50;;;;;;;;;;5098549;28;20179;-81
2021/01/22 14:40:38;;;;;;;1.77;1.45;;;;;;;;;;5105326;28;20188;-85
2021/01/22 14:43:04;;;;;;;3.75;1.20;;;;;;;;;;5093379;28;20214;-88